Time;durP1;ratioP1;P1;durP2;ratioP2;P2;SDS_P1;SDS_P2;PMS_P1;PMS_P2;Temp;Humidity;BMP_temperature;BMP_pressure;BME280_temperature;BME280_humidity;BME280_pressure;Samples;Min_cycle;Max_cycle;Signal;HPM_P1;HPM_P2
2022/03/31 00:00:15;;;;;;;0.70;0.43;;;7.10;99.90;;;;;;5096863;28;21043;-87
2022/03/31 00:02:44;;;;;;;3.57;1.37;;;7.10;99.90;;;;;;5097324;28;20435;-87
2022/03/31 00:05:11;;;;;;;0.53;0.53;;;7.20;99.90;;;;;;5097240;28;20451;-86
2022/03/31 00:07:48;;;;;;;0.30;0.30;;;7.30;99.90;;;;;;5096805;28;20475;-87
2022/03/31 00:10:15;;;;;;;0.60;0.50;;;7.20;99.90;;;;;;5097124;28;20876;-87
2022/03/31 00:12:42;;;;;;;0.80;0.80;;;7.20;99.90;;;;;;5097124;28;20451;-87
2022/03/31 00:15:09;;;;;;;0.30;0.30;;;7.20;99.90;;;;;;5096729;28;20799;-86
2022/03/31 00:17:36;;;;;;;3.87;1.20;;;7.30;99.90;;;;;;5096999;28;20440;-87
2022/03/31 00:20:04;;;;;;;1.27;1.27;;;7.30;99.90;;;;;;5096837;28;20462;-87
2022/03/31 00:22:31;;;;;;;3.57;0.77;;;7.20;99.90;;;;;;5096571;28;20439;-87
2022/03/31 00:24:58;;;;;;;0.50;0.50;;;7.20;99.90;;;;;;5096774;28;20452;-87
2022/03/31 00:27:25;;;;;;;0.60;0.60;;;7.20;99.90;;;;;;5096417;28;20468;-87
2022/03/31 00:29:51;;;;;;;2.57;0.73;;;7.20;99.90;;;;;;5096660;28;20472;-87
2022/03/31 00:32:18;;;;;;;0.70;0.40;;;7.20;99.90;;;;;;5096776;28;20443;-87
2022/03/31 00:34:45;;;;;;;0.30;0.30;;;7.00;99.90;;;;;;5096668;28;20462;-88
2022/03/31 00:37:13;;;;;;;0.60;0.60;;;7.00;99.90;;;;;;5096328;28;20443;-87
2022/03/31 00:39:40;;;;;;;2.57;0.73;;;7.10;99.90;;;;;;5096201;28;20460;-87
2022/03/31 00:42:08;;;;;;;0.40;0.40;;;7.10;99.90;;;;;;5096273;28;20814;-86
2022/03/31 00:44:35;;;;;;;0.67;0.67;;;7.10;99.90;;;;;;5096485;28;20452;-87
2022/03/31 00:47:02;;;;;;;0.70;0.70;;;7.00;99.90;;;;;;5096366;28;20451;-87
2022/03/31 00:49:29;;;;;;;0.83;0.83;;;7.00;99.90;;;;;;5095998;28;20986;-87
2022/03/31 00:51:56;;;;;;;2.60;1.90;;;7.00;99.90;;;;;;5095971;28;20452;-87
2022/03/31 00:54:26;;;;;;;0.60;0.60;;;7.00;99.90;;;;;;5096276;28;20447;-87
2022/03/31 00:56:54;;;;;;;0.40;0.30;;;6.90;99.90;;;;;;5096237;28;20444;-87
2022/03/31 00:59:21;;;;;;;0.30;0.30;;;6.90;99.90;;;;;;5095844;28;20467;-87
2022/03/31 01:01:48;;;;;;;0.30;0.30;;;6.90;99.90;;;;;;5095695;28;20476;-86
2022/03/31 01:04:15;;;;;;;0.40;0.40;;;6.90;99.90;;;;;;5095787;28;20965;-87
2022/03/31 01:06:44;;;;;;;0.93;0.93;;;6.90;99.90;;;;;;5096008;28;20452;-87
2022/03/31 01:09:13;;;;;;;0.40;0.40;;;6.90;99.90;;;;;;5095881;28;20549;-87
2022/03/31 01:11:45;;;;;;;0.40;0.40;;;6.80;99.90;;;;;;5095141;28;20444;-87
2022/03/31 01:14:12;;;;;;;0.40;0.30;;;6.80;99.90;;;;;;5095908;28;20526;-87
2022/03/31 01:16:39;;;;;;;0.43;0.43;;;6.80;99.90;;;;;;5095553;28;20541;-86
2022/03/31 01:19:08;;;;;;;1.57;1.07;;;6.90;99.90;;;;;;5095987;28;20821;-88
2022/03/31 01:21:38;;;;;;;0.30;0.30;;;6.90;99.90;;;;;;5095745;28;20455;-88
2022/03/31 01:24:08;;;;;;;1.00;1.00;;;6.90;99.90;;;;;;5095803;28;20464;-87
2022/03/31 01:26:35;;;;;;;0.73;0.70;;;6.80;99.90;;;;;;5095705;28;20436;-87
2022/03/31 01:29:03;;;;;;;2.47;0.40;;;6.80;99.90;;;;;;5095467;28;20487;-87
2022/03/31 01:31:30;;;;;;;1.60;0.60;;;6.80;99.90;;;;;;5095488;28;20459;-86
2022/03/31 01:33:58;;;;;;;0.97;0.97;;;6.70;99.90;;;;;;5095573;28;20468;-87
2022/03/31 01:36:25;;;;;;;0.40;0.30;;;6.70;99.90;;;;;;5095254;28;20416;-87
2022/03/31 01:38:52;;;;;;;0.40;0.30;;;6.80;99.90;;;;;;5095349;28;20452;-87
2022/03/31 01:41:20;;;;;;;0.43;0.43;;;6.80;99.90;;;;;;5095465;28;20448;-86
2022/03/31 01:43:47;;;;;;;0.40;0.40;;;6.90;99.90;;;;;;5095409;28;20447;-86
2022/03/31 01:46:14;;;;;;;1.60;0.30;;;6.90;99.90;;;;;;5095339;28;20424;-87
2022/03/31 01:48:41;;;;;;;0.60;0.60;;;6.90;99.90;;;;;;5095120;28;20479;-86
2022/03/31 01:51:08;;;;;;;1.13;1.10;;;6.90;99.90;;;;;;5095203;28;20431;-87
2022/03/31 01:53:36;;;;;;;0.30;0.30;;;6.90;99.90;;;;;;5095364;28;20416;-87
2022/03/31 01:56:04;;;;;;;0.30;0.30;;;6.90;99.90;;;;;;5095091;28;20455;-87
2022/03/31 01:58:33;;;;;;;0.30;0.30;;;6.90;99.90;;;;;;5095800;28;20813;-87
2022/03/31 02:01:00;;;;;;;0.50;0.50;;;6.90;99.90;;;;;;5094709;28;20476;-86
2022/03/31 02:03:27;;;;;;;0.40;0.40;;;6.80;99.90;;;;;;5095037;28;20433;-87
2022/03/31 02:05:54;;;;;;;0.87;0.70;;;6.80;99.90;;;;;;5094618;28;20813;-87
2022/03/31 02:08:21;;;;;;;0.40;0.30;;;6.80;99.90;;;;;;5094729;28;20468;-88
2022/03/31 02:10:49;;;;;;;2.20;0.40;;;6.80;99.90;;;;;;5094804;28;20862;-86
2022/03/31 02:13:16;;;;;;;0.50;0.50;;;6.90;99.90;;;;;;5094782;28;20440;-87
2022/03/31 02:15:44;;;;;;;1.33;0.40;;;6.90;99.90;;;;;;5094753;28;20444;-86
2022/03/31 02:18:11;;;;;;;0.40;0.33;;;6.90;99.90;;;;;;5094424;28;20951;-88
2022/03/31 02:20:39;;;;;;;0.30;0.30;;;6.90;99.90;;;;;;5094585;28;20456;-87
2022/03/31 02:23:05;;;;;;;1.93;0.90;;;6.90;99.90;;;;;;5093678;28;20442;-87
2022/03/31 02:25:34;;;;;;;3.63;0.80;;;6.80;99.90;;;;;;5094403;28;20446;-87
2022/03/31 02:28:01;;;;;;;0.30;0.30;;;6.80;99.90;;;;;;5094533;28;20482;-87
2022/03/31 02:30:28;;;;;;;0.30;0.30;;;6.80;99.90;;;;;;5094428;28;20898;-87
2022/03/31 02:32:59;;;;;;;2.50;1.03;;;6.80;99.90;;;;;;5094448;28;20497;-86
2022/03/31 02:35:26;;;;;;;0.30;0.30;;;6.90;99.90;;;;;;5094431;28;20436;-87
2022/03/31 02:37:53;;;;;;;0.30;0.30;;;6.90;99.90;;;;;;5094164;28;20444;-87
2022/03/31 02:40:19;;;;;;;0.83;0.70;;;6.90;99.90;;;;;;5093852;28;20475;-87
2022/03/31 02:42:46;;;;;;;1.83;1.23;;;6.90;99.90;;;;;;5093934;28;20447;-87
2022/03/31 02:45:13;;;;;;;0.47;0.47;;;6.90;99.90;;;;;;5093888;28;20448;-87
2022/03/31 02:47:40;;;;;;;0.30;0.30;;;6.90;99.90;;;;;;5094073;28;20439;-87
2022/03/31 02:50:09;;;;;;;0.63;0.60;;;6.80;99.90;;;;;;5094023;28;20467;-87
2022/03/31 02:55:25;;;;;;;0.70;0.70;;;6.80;99.90;;;;;;5094121;28;20559;-87
2022/03/31 02:57:53;;;;;;;1.47;0.50;;;6.80;99.90;;;;;;5093678;28;20439;-87
2022/03/31 03:00:20;;;;;;;0.40;0.40;;;6.80;99.90;;;;;;5093389;28;20468;-86
2022/03/31 03:02:47;;;;;;;0.60;0.60;;;6.80;99.90;;;;;;5093631;28;20452;-87
2022/03/31 03:05:15;;;;;;;0.30;0.30;;;6.80;99.90;;;;;;5093924;28;20444;-88
2022/03/31 03:07:42;;;;;;;0.57;0.57;;;6.80;99.90;;;;;;5093722;28;20440;-87
2022/03/31 03:10:09;;;;;;;0.93;0.90;;;6.70;99.90;;;;;;5093651;28;20473;-86
2022/03/31 03:12:36;;;;;;;0.77;0.60;;;6.70;99.90;;;;;;5093759;28;20830;-87
2022/03/31 03:15:03;;;;;;;0.93;0.77;;;6.70;99.90;;;;;;5093623;28;20456;-87
2022/03/31 03:17:30;;;;;;;2.17;0.67;;;6.70;99.90;;;;;;5093402;28;20442;-87
2022/03/31 03:19:57;;;;;;;0.40;0.40;;;6.70;99.90;;;;;;5093578;28;20467;-87
2022/03/31 03:22:26;;;;;;;0.30;0.30;;;6.70;99.90;;;;;;5093675;28;20447;-88
2022/03/31 03:24:53;;;;;;;0.50;0.50;;;6.70;99.90;;;;;;5093292;28;21008;-86
2022/03/31 03:27:19;;;;;;;0.30;0.30;;;6.70;99.90;;;;;;5093623;28;20443;-88
2022/03/31 03:29:47;;;;;;;1.00;0.97;;;6.80;99.90;;;;;;5093077;28;20483;-87
2022/03/31 03:32:14;;;;;;;0.63;0.63;;;6.70;99.90;;;;;;5093304;28;20474;-88
2022/03/31 03:34:41;;;;;;;2.10;0.60;;;6.70;99.90;;;;;;5093248;28;20796;-87
2022/03/31 03:37:08;;;;;;;0.50;0.50;;;6.70;99.90;;;;;;5093375;28;20459;-87
2022/03/31 03:39:36;;;;;;;0.40;0.40;;;6.70;99.90;;;;;;5093415;28;20472;-87
2022/03/31 03:42:03;;;;;;;0.40;0.40;;;6.70;99.90;;;;;;5093171;28;20444;-86
2022/03/31 03:44:30;;;;;;;5.07;0.70;;;6.70;99.90;;;;;;5093189;28;20822;-87
2022/03/31 03:46:57;;;;;;;0.50;0.50;;;6.70;99.90;;;;;;5093266;28;20432;-87
2022/03/31 03:49:24;;;;;;;0.40;0.37;;;6.70;99.90;;;;;;5093002;28;20482;-87
2022/03/31 03:51:50;;;;;;;0.77;0.50;;;6.70;99.90;;;;;;5093443;28;20452;-87
2022/03/31 03:54:17;;;;;;;1.13;0.50;;;6.70;99.90;;;;;;5093370;28;20447;-88
2022/03/31 03:56:45;;;;;;;0.50;0.50;;;6.70;99.90;;;;;;5093346;28;20543;-87
2022/03/31 03:59:12;;;;;;;1.17;0.90;;;6.70;99.90;;;;;;5093177;28;20843;-88
2022/03/31 04:01:39;;;;;;;2.30;1.33;;;6.70;99.90;;;;;;5092919;28;20542;-87
2022/03/31 04:04:06;;;;;;;1.07;1.07;;;6.70;99.90;;;;;;5092988;28;20931;-87
2022/03/31 04:06:32;;;;;;;0.40;0.40;;;6.70;99.90;;;;;;5097382;28;20789;-87
2022/03/31 04:08:59;;;;;;;0.40;0.30;;;6.60;99.90;;;;;;5092765;28;20479;-87
2022/03/31 04:11:26;;;;;;;0.30;0.30;;;6.70;99.90;;;;;;5093207;28;20452;-87
2022/03/31 04:13:54;;;;;;;0.50;0.50;;;6.70;99.90;;;;;;5092910;28;20953;-87
2022/03/31 04:16:20;;;;;;;4.10;0.90;;;6.70;99.90;;;;;;5093189;28;20440;-87
2022/03/31 04:18:47;;;;;;;1.07;0.97;;;6.70;99.90;;;;;;5092798;28;20440;-86
2022/03/31 04:21:14;;;;;;;0.30;0.30;;;6.70;99.90;;;;;;5093124;28;20448;-87
2022/03/31 04:23:42;;;;;;;0.37;0.33;;;6.70;99.90;;;;;;5092871;28;20971;-86
2022/03/31 04:26:08;;;;;;;0.30;0.30;;;6.70;99.90;;;;;;5092866;28;20942;-87
2022/03/31 04:28:35;;;;;;;0.40;0.40;;;6.70;99.90;;;;;;5093139;28;20475;-86
2022/03/31 04:31:03;;;;;;;0.93;0.77;;;6.60;99.90;;;;;;5092981;28;20456;-86
2022/03/31 04:33:30;;;;;;;0.83;0.83;;;6.60;99.90;;;;;;5092974;28;20450;-85
2022/03/31 04:35:57;;;;;;;2.20;0.57;;;6.50;99.90;;;;;;5092958;28;20450;-87
2022/03/31 04:38:24;;;;;;;0.50;0.50;;;6.50;99.90;;;;;;5092787;28;20793;-86
2022/03/31 04:40:51;;;;;;;1.03;0.90;;;6.50;99.90;;;;;;5092790;28;20467;-87
2022/03/31 04:43:17;;;;;;;0.40;0.30;;;6.50;99.90;;;;;;5092570;28;20830;-87
2022/03/31 04:45:44;;;;;;;0.40;0.40;;;6.50;99.90;;;;;;5093832;28;20943;-87
2022/03/31 04:48:12;;;;;;;0.50;0.50;;;6.50;99.90;;;;;;5096471;28;20444;-87
2022/03/31 04:50:39;;;;;;;0.50;0.50;;;6.60;99.90;;;;;;5096252;28;20472;-87
2022/03/31 04:53:07;;;;;;;7.10;1.33;;;6.40;99.90;;;;;;5096346;28;20470;-87
2022/03/31 04:55:34;;;;;;;0.90;0.90;;;6.50;99.90;;;;;;5095943;28;20447;-87
2022/03/31 04:58:01;;;;;;;0.30;0.30;;;6.50;99.90;;;;;;5096281;28;20796;-87
2022/03/31 05:00:27;;;;;;;0.40;0.40;;;6.40;99.90;;;;;;5095941;28;20480;-87
2022/03/31 05:02:55;;;;;;;2.60;0.70;;;6.50;99.90;;;;;;5096262;28;20439;-88
2022/03/31 05:05:24;;;;;;;0.67;0.67;;;6.40;99.90;;;;;;5095810;28;20501;-87
2022/03/31 05:07:50;;;;;;;0.60;0.60;;;6.40;99.90;;;;;;5095848;28;20443;-87
2022/03/31 05:10:17;;;;;;;0.30;0.30;;;6.40;99.90;;;;;;5095604;28;20857;-88
2022/03/31 05:12:44;;;;;;;1.13;0.50;;;6.30;99.90;;;;;;5095743;28;20436;-87
2022/03/31 05:15:11;;;;;;;2.77;0.97;;;6.20;99.90;;;;;;5095535;28;20843;-88
2022/03/31 05:17:39;;;;;;;0.50;0.50;;;6.10;99.90;;;;;;5095856;28;20487;-88
2022/03/31 05:20:08;;;;;;;2.10;0.53;;;6.20;99.90;;;;;;5095809;28;20460;-87
2022/03/31 05:22:38;;;;;;;0.30;0.30;;;6.20;99.90;;;;;;5095747;28;20432;-87
2022/03/31 05:25:07;;;;;;;1.13;0.40;;;6.20;99.90;;;;;;5095740;28;20475;-88
2022/03/31 05:27:34;;;;;;;0.47;0.40;;;6.20;99.90;;;;;;5095361;28;20436;-87
2022/03/31 05:30:00;;;;;;;1.17;1.07;;;6.30;99.90;;;;;;5095481;28;20487;-87
2022/03/31 05:32:27;;;;;;;0.50;0.30;;;6.30;99.90;;;;;;5095336;28;20433;-87
2022/03/31 05:34:54;;;;;;;0.40;0.30;;;6.20;99.90;;;;;;5095181;28;20456;-87
2022/03/31 05:37:22;;;;;;;0.80;0.77;;;6.30;99.90;;;;;;5095545;28;20444;-88
2022/03/31 05:39:50;;;;;;;0.67;0.67;;;6.20;99.90;;;;;;5095404;28;20497;-88
2022/03/31 05:42:17;;;;;;;5.00;0.70;;;6.20;99.90;;;;;;5096012;28;20527;-88
2022/03/31 05:44:44;;;;;;;6.77;0.97;;;6.20;99.90;;;;;;5095088;28;20448;-87
2022/03/31 05:47:11;;;;;;;1.80;0.70;;;6.10;99.90;;;;;;5095503;28;20507;-87
2022/03/31 05:49:38;;;;;;;0.80;0.80;;;6.20;99.90;;;;;;5094972;28;20494;-86
2022/03/31 05:52:05;;;;;;;0.50;0.50;;;6.10;99.90;;;;;;5095743;28;20444;-88
2022/03/31 05:54:32;;;;;;;0.50;0.50;;;6.10;99.90;;;;;;5095041;28;20439;-87
2022/03/31 05:57:00;;;;;;;0.77;0.70;;;6.20;99.90;;;;;;5094897;28;20439;-87
2022/03/31 05:59:27;;;;;;;0.80;0.80;;;6.10;99.90;;;;;;5095100;28;20464;-87
2022/03/31 06:01:54;;;;;;;0.30;0.30;;;6.10;99.90;;;;;;5094722;28;20478;-87
2022/03/31 06:04:21;;;;;;;1.33;0.80;;;6.10;99.90;;;;;;5095563;28;20452;-87
2022/03/31 06:06:48;;;;;;;0.40;0.30;;;6.20;99.90;;;;;;5095667;28;20561;-87
2022/03/31 06:09:15;;;;;;;0.30;0.30;;;6.20;99.90;;;;;;5095050;28;20491;-87
2022/03/31 06:11:42;;;;;;;0.60;0.50;;;6.30;99.90;;;;;;5095026;28;20439;-88
2022/03/31 06:14:11;;;;;;;1.80;0.83;;;6.30;99.90;;;;;;5095000;28;20447;-88
2022/03/31 06:16:38;;;;;;;0.40;0.40;;;6.30;99.90;;;;;;5095022;28;20443;-88
2022/03/31 06:19:05;;;;;;;7.53;1.40;;;6.30;99.90;;;;;;5099793;28;20452;-87
2022/03/31 06:21:32;;;;;;;3.90;0.80;;;6.20;99.90;;;;;;5095868;28;20444;-87
2022/03/31 06:23:58;;;;;;;1.03;0.50;;;6.20;99.90;;;;;;5095464;28;20439;-86
2022/03/31 06:26:26;;;;;;;0.93;0.93;;;6.20;99.90;;;;;;5095577;28;20456;-86
2022/03/31 06:28:53;;;;;;;1.70;0.50;;;6.20;99.90;;;;;;5094687;28;20444;-86
2022/03/31 06:31:23;;;;;;;0.80;0.60;;;6.20;99.90;;;;;;5094585;28;20448;-86
2022/03/31 06:33:50;;;;;;;0.60;0.60;;;6.30;99.90;;;;;;5094683;28;20444;-86
2022/03/31 06:36:17;;;;;;;1.33;0.73;;;6.30;99.90;;;;;;5094445;28;20452;-86
2022/03/31 06:38:43;;;;;;;0.30;0.30;;;6.30;99.90;;;;;;5094306;28;20518;-87
2022/03/31 06:41:13;;;;;;;1.00;0.83;;;6.30;99.90;;;;;;5094364;28;20450;-86
2022/03/31 06:43:41;;;;;;;0.57;0.53;;;6.30;99.90;;;;;;5094352;28;20462;-86
2022/03/31 06:46:09;;;;;;;2.13;2.03;;;6.50;99.90;;;;;;5094530;28;20855;-86
2022/03/31 06:48:37;;;;;;;0.50;0.50;;;6.60;99.90;;;;;;5094649;28;20451;-86
2022/03/31 06:51:05;;;;;;;0.57;0.40;;;6.60;99.90;;;;;;5094981;28;20921;-86
2022/03/31 06:53:32;;;;;;;2.07;0.70;;;6.60;99.90;;;;;;5094986;28;20448;-86
2022/03/31 06:55:59;;;;;;;0.63;0.63;;;6.60;99.90;;;;;;5094817;28;20440;-87
2022/03/31 06:58:28;;;;;;;0.43;0.43;;;6.60;99.90;;;;;;5095076;28;20459;-87
2022/03/31 07:00:56;;;;;;;0.30;0.30;;;6.50;99.90;;;;;;5094340;28;20544;-86
2022/03/31 07:03:22;;;;;;;0.40;0.40;;;6.60;99.90;;;;;;5094638;28;20996;-86
2022/03/31 07:05:50;;;;;;;1.17;1.07;;;6.60;99.90;;;;;;5094698;28;20454;-86
2022/03/31 07:08:17;;;;;;;0.90;0.87;;;6.60;99.90;;;;;;5094078;28;20451;-86
2022/03/31 07:10:44;;;;;;;0.40;0.40;;;6.60;99.90;;;;;;5094394;28;20487;-86
2022/03/31 07:13:11;;;;;;;2.73;1.17;;;6.60;99.90;;;;;;5094467;28;20447;-86
2022/03/31 07:15:38;;;;;;;0.87;0.40;;;6.70;99.90;;;;;;5094597;28;20437;-86
2022/03/31 07:18:05;;;;;;;0.50;0.47;;;6.80;99.90;;;;;;5094631;28;20444;-87
2022/03/31 07:20:33;;;;;;;4.97;0.60;;;6.80;99.90;;;;;;5094661;28;20835;-85
2022/03/31 07:23:02;;;;;;;1.13;0.60;;;6.80;99.90;;;;;;5094516;28;20459;-86
2022/03/31 07:25:29;;;;;;;0.30;0.30;;;6.70;99.90;;;;;;5094733;28;20436;-85
2022/03/31 07:27:56;;;;;;;1.50;0.50;;;6.60;99.90;;;;;;5094882;28;20439;-86
2022/03/31 07:30:23;;;;;;;0.60;0.60;;;6.60;99.90;;;;;;5094315;28;20831;-86
2022/03/31 07:32:51;;;;;;;3.80;1.20;;;6.70;99.90;;;;;;5095215;28;20838;-86
2022/03/31 07:35:20;;;;;;;0.40;0.37;;;6.60;99.90;;;;;;5093656;28;20463;-87
2022/03/31 07:37:47;;;;;;;3.27;0.50;;;6.70;99.90;;;;;;5093556;28;20438;-86
2022/03/31 07:40:15;;;;;;;0.40;0.40;;;6.70;99.90;;;;;;5093045;28;20829;-86
2022/03/31 07:42:51;;;;;;;1.70;1.60;;;6.70;99.90;;;;;;5093299;28;20448;-85
2022/03/31 07:46:03;;;;;;;0.67;0.40;;;6.80;99.90;;;;;;5092824;28;20440;-85
2022/03/31 07:55:41;;;;;;;0.50;0.50;;;7.00;99.90;;;;;;5073032;28;20479;-85
2022/03/31 08:02:12;;;;;;;1.60;1.50;;;7.10;99.90;;;;;;5011318;28;20474;-85
2022/03/31 08:04:46;;;;;;;0.80;0.60;;;7.10;99.90;;;;;;5023363;28;20485;-85
2022/03/31 08:07:29;;;;;;;2.37;2.27;;;7.20;99.90;;;;;;5087725;28;20449;-85
2022/03/31 08:10:08;;;;;;;4.50;0.77;;;7.30;99.90;;;;;;5088958;28;20490;-85
2022/03/31 08:13:08;;;;;;;0.60;0.60;;;7.40;99.90;;;;;;5091810;28;20451;-85
2022/03/31 08:16:19;;;;;;;2.93;0.60;;;7.50;99.90;;;;;;5093002;28;20441;-86
2022/03/31 08:22:05;;;;;;;0.40;0.40;;;7.60;99.90;;;;;;5050235;28;20526;-85
2022/03/31 08:24:32;;;;;;;1.50;1.40;;;7.60;99.90;;;;;;5096592;28;20440;-87
2022/03/31 08:26:59;;;;;;;6.70;1.07;;;7.60;99.90;;;;;;5096868;28;20444;-87
2022/03/31 08:29:27;;;;;;;0.60;0.60;;;7.70;99.90;;;;;;5096531;28;20459;-83
2022/03/31 08:31:55;;;;;;;2.43;1.73;;;7.70;99.90;;;;;;5097886;28;20794;-86
2022/03/31 08:34:22;;;;;;;2.13;0.50;;;7.80;99.90;;;;;;5096815;28;20448;-84
2022/03/31 08:36:49;;;;;;;2.50;0.73;;;7.70;99.90;;;;;;5096604;28;20408;-85
2022/03/31 08:39:16;;;;;;;0.93;0.53;;;7.80;99.90;;;;;;5096326;28;20812;-84
2022/03/31 08:41:44;;;;;;;1.00;1.00;;;7.80;99.90;;;;;;5096259;28;20448;-84
2022/03/31 08:44:12;;;;;;;5.13;1.63;;;7.80;99.90;;;;;;5096428;28;20513;-85
2022/03/31 08:46:41;;;;;;;0.60;0.60;;;7.70;99.90;;;;;;5096563;28;20494;-84
2022/03/31 08:49:10;;;;;;;0.30;0.27;;;7.70;99.90;;;;;;5096154;28;20452;-85
2022/03/31 08:51:38;;;;;;;1.00;1.00;;;7.70;99.90;;;;;;5096410;28;20494;-84
2022/03/31 08:54:08;;;;;;;0.47;0.40;;;7.80;99.90;;;;;;5096508;28;20452;-85
2022/03/31 08:56:34;;;;;;;0.40;0.40;;;7.80;99.90;;;;;;5096050;28;20908;-84
2022/03/31 08:59:01;;;;;;;1.57;1.47;;;7.80;99.90;;;;;;5096121;28;20468;-85
2022/03/31 09:01:30;;;;;;;2.63;0.90;;;8.00;99.90;;;;;;5095997;28;20835;-84
2022/03/31 09:03:58;;;;;;;0.50;0.33;;;8.20;99.90;;;;;;5095973;28;20479;-84
2022/03/31 09:06:28;;;;;;;2.10;0.80;;;8.50;99.90;;;;;;5095756;28;20448;-84
2022/03/31 09:08:56;;;;;;;0.60;0.60;;;8.70;99.90;;;;;;5095770;28;20452;-84
2022/03/31 09:11:29;;;;;;;0.70;0.70;;;8.90;99.90;;;;;;5095827;28;20892;-92
2022/03/31 09:13:57;;;;;;;1.43;1.00;;;9.00;99.90;;;;;;5096318;28;20444;-86
2022/03/31 09:16:31;;;;;;;0.50;0.50;;;9.00;99.90;;;;;;5096416;28;20447;-86
2022/03/31 09:19:03;;;;;;;2.87;0.63;;;9.10;99.90;;;;;;5096664;28;20440;-86
2022/03/31 09:21:31;;;;;;;0.97;0.50;;;9.10;99.90;;;;;;5096408;28;20439;-85
2022/03/31 09:24:00;;;;;;;0.63;0.60;;;9.20;99.90;;;;;;5096316;28;20502;-85
2022/03/31 09:26:31;;;;;;;2.30;0.50;;;9.30;99.90;;;;;;5096040;28;20589;-84
2022/03/31 09:29:12;;;;;;;1.53;0.37;;;9.30;99.90;;;;;;5095969;28;20521;-84
2022/03/31 09:31:40;;;;;;;0.50;0.50;;;9.40;99.90;;;;;;5094986;28;20867;-84
2022/03/31 09:34:08;;;;;;;0.50;0.50;;;9.40;99.90;;;;;;5095829;28;20452;-84
2022/03/31 09:36:36;;;;;;;4.87;2.33;;;9.40;99.90;;;;;;5095525;28;20493;-85
2022/03/31 09:39:07;;;;;;;1.93;0.70;;;9.30;99.90;;;;;;5095445;28;21029;-84
2022/03/31 09:41:35;;;;;;;0.50;0.50;;;9.20;99.90;;;;;;5095390;28;20428;-84
2022/03/31 09:44:04;;;;;;;1.73;1.63;;;9.20;99.90;;;;;;5095674;28;20446;-84
2022/03/31 09:46:33;;;;;;;0.50;0.50;;;9.30;99.90;;;;;;5095527;28;20444;-84
2022/03/31 09:49:09;;;;;;;1.43;0.90;;;9.40;99.90;;;;;;5095084;28;21043;-84
2022/03/31 09:51:37;;;;;;;1.90;0.57;;;9.30;99.90;;;;;;5095345;28;20467;-84
2022/03/31 09:54:05;;;;;;;1.00;0.40;;;9.40;99.90;;;;;;5095654;28;20432;-84
2022/03/31 09:56:35;;;;;;;2.23;0.80;;;9.40;99.90;;;;;;5095579;28;20443;-84
2022/03/31 09:59:04;;;;;;;1.07;0.80;;;9.40;99.90;;;;;;5095474;28;20494;-84
2022/03/31 10:01:31;;;;;;;1.07;0.60;;;9.40;99.90;;;;;;5099746;28;20444;-83
2022/03/31 10:03:58;;;;;;;0.90;0.80;;;9.40;99.90;;;;;;5094908;28;20476;-84
2022/03/31 10:06:26;;;;;;;0.97;0.97;;;9.40;99.90;;;;;;5095390;28;20440;-84
2022/03/31 10:08:57;;;;;;;1.07;0.80;;;9.40;99.90;;;;;;5094946;28;20954;-84
2022/03/31 10:11:27;;;;;;;1.37;1.37;;;9.40;99.90;;;;;;5095113;28;20476;-84
2022/03/31 10:14:03;;;;;;;1.63;1.13;;;9.50;99.90;;;;;;5095431;28;20432;-84
2022/03/31 10:16:38;;;;;;;0.40;0.30;;;9.70;99.90;;;;;;5095218;28;20518;-84
2022/03/31 10:19:05;;;;;;;0.83;0.60;;;9.80;99.90;;;;;;5094806;28;21027;-83
2022/03/31 10:21:32;;;;;;;1.10;0.83;;;10.00;99.90;;;;;;5094964;28;20455;-84
2022/03/31 10:26:44;;;;;;;6.33;0.70;;;10.30;99.90;;;;;;5094978;28;20812;-84
2022/03/31 10:29:12;;;;;;;1.70;1.60;;;10.30;99.90;;;;;;5094560;28;20455;-84
2022/03/31 10:31:41;;;;;;;4.93;0.73;;;10.40;99.90;;;;;;5094648;28;20475;-84
2022/03/31 10:34:10;;;;;;;0.60;0.60;;;10.50;99.90;;;;;;5094822;28;20816;-84
2022/03/31 10:36:40;;;;;;;0.80;0.80;;;10.50;99.90;;;;;;5095137;28;20451;-84
2022/03/31 10:39:16;;;;;;;1.03;0.53;;;10.50;99.90;;;;;;5094283;28;20839;-84
2022/03/31 10:41:44;;;;;;;2.50;0.80;;;10.50;99.90;;;;;;5094526;28;20408;-84
2022/03/31 10:44:19;;;;;;;1.80;1.70;;;10.40;99.90;;;;;;5093737;28;20444;-83
2022/03/31 10:46:58;;;;;;;2.07;0.80;;;10.30;99.90;;;;;;5094377;28;20428;-84
2022/03/31 10:49:25;;;;;;;1.90;1.80;;;10.30;99.90;;;;;;5094448;28;20471;-84
2022/03/31 10:51:53;;;;;;;1.30;1.20;;;10.20;99.90;;;;;;5094440;28;20484;-84
2022/03/31 10:54:29;;;;;;;0.67;0.67;;;10.10;99.90;;;;;;5094547;28;20451;-84
2022/03/31 10:57:07;;;;;;;0.73;0.50;;;10.10;99.90;;;;;;5094171;28;20919;-84
2022/03/31 10:59:35;;;;;;;0.77;0.60;;;9.90;99.90;;;;;;5094336;28;20471;-84
2022/03/31 11:02:09;;;;;;;2.30;0.93;;;9.80;99.90;;;;;;5093969;28;20927;-84
2022/03/31 11:04:51;;;;;;;4.83;1.70;;;9.80;99.90;;;;;;5093907;28;20470;-85
2022/03/31 11:07:20;;;;;;;2.03;1.10;;;9.80;99.90;;;;;;5094175;28;20511;-84
2022/03/31 11:09:49;;;;;;;2.50;0.60;;;9.80;99.90;;;;;;5093729;28;20453;-84
2022/03/31 11:12:24;;;;;;;1.03;1.03;;;9.70;99.90;;;;;;5093721;28;20471;-84
2022/03/31 11:14:59;;;;;;;1.40;0.80;;;9.70;99.90;;;;;;5093855;28;20462;-84
2022/03/31 11:17:26;;;;;;;0.63;0.63;;;9.80;99.90;;;;;;5093763;28;20432;-85
2022/03/31 11:19:55;;;;;;;2.77;0.63;;;9.80;99.90;;;;;;5093913;28;20558;-84
2022/03/31 11:22:23;;;;;;;0.80;0.70;;;9.90;99.90;;;;;;5093673;28;20515;-84
2022/03/31 11:24:51;;;;;;;0.50;0.40;;;10.00;99.90;;;;;;5093941;28;20425;-84
2022/03/31 11:27:37;;;;;;;1.60;0.90;;;10.20;99.90;;;;;;5093960;28;20523;-84
2022/03/31 11:30:06;;;;;;;1.60;0.70;;;10.40;99.90;;;;;;5093754;28;20444;-84
2022/03/31 11:32:34;;;;;;;5.00;1.13;;;10.60;99.90;;;;;;5093548;28;20455;-84
2022/03/31 11:35:01;;;;;;;2.70;1.07;;;10.70;99.90;;;;;;5094620;28;20452;-84
2022/03/31 11:37:28;;;;;;;1.43;0.90;;;10.70;99.90;;;;;;5093768;28;20940;-84
2022/03/31 11:39:56;;;;;;;0.97;0.60;;;10.70;99.90;;;;;;5093895;28;20472;-84
2022/03/31 11:42:23;;;;;;;0.70;0.70;;;10.80;99.90;;;;;;5094161;28;20440;-85
2022/03/31 11:44:50;;;;;;;2.80;1.20;;;10.80;99.90;;;;;;5093489;28;20451;-80
2022/03/31 11:47:24;;;;;;;2.30;1.07;;;10.80;99.90;;;;;;5093243;28;20409;-80
2022/03/31 11:49:59;;;;;;;0.70;0.70;;;10.80;99.90;;;;;;5093408;28;20468;-80
2022/03/31 11:52:30;;;;;;;2.40;0.73;;;10.80;99.90;;;;;;5093034;28;20475;-79
2022/03/31 11:55:00;;;;;;;1.23;1.00;;;10.70;99.90;;;;;;5095186;28;20855;-80
2022/03/31 11:57:28;;;;;;;0.80;0.40;;;10.60;99.90;;;;;;5097241;28;20432;-80
2022/03/31 11:59:55;;;;;;;0.30;0.30;;;10.40;99.90;;;;;;5097090;28;20558;-80
2022/03/31 12:02:23;;;;;;;0.70;0.40;;;10.30;99.90;;;;;;5097404;28;20505;-80
2022/03/31 12:04:50;;;;;;;0.63;0.63;;;10.10;99.90;;;;;;5096868;28;20483;-80
2022/03/31 12:07:19;;;;;;;7.20;1.77;;;10.10;99.90;;;;;;5097091;28;20444;-79
2022/03/31 12:09:47;;;;;;;4.03;1.53;;;10.10;99.90;;;;;;5097173;28;20521;-80
2022/03/31 12:12:17;;;;;;;1.53;1.10;;;10.00;99.90;;;;;;5097088;28;20488;-79
2022/03/31 12:14:54;;;;;;;3.23;1.43;;;9.90;99.90;;;;;;5096849;28;20432;-81
2022/03/31 12:17:23;;;;;;;0.50;0.47;;;9.80;99.90;;;;;;5096816;28;20477;-79
2022/03/31 12:19:50;;;;;;;2.40;1.20;;;9.80;99.90;;;;;;5096967;28;20514;-80
2022/03/31 12:22:17;;;;;;;4.63;0.57;;;9.70;99.90;;;;;;5096681;28;20428;-79
2022/03/31 12:24:52;;;;;;;0.70;0.50;;;9.70;99.90;;;;;;5096909;28;20455;-79
2022/03/31 12:27:22;;;;;;;1.83;1.27;;;9.70;99.90;;;;;;5100815;28;20477;-84
2022/03/31 12:29:58;;;;;;;0.57;0.57;;;9.80;99.90;;;;;;5097260;28;20467;-84
2022/03/31 12:32:25;;;;;;;2.23;1.47;;;9.80;99.90;;;;;;5096498;28;20992;-84
2022/03/31 12:34:56;;;;;;;1.23;1.23;;;9.90;99.90;;;;;;5097712;28;20434;-83
2022/03/31 12:37:29;;;;;;;1.50;1.40;;;10.00;99.90;;;;;;5096662;28;20428;-84
2022/03/31 12:39:56;;;;;;;2.93;1.13;;;10.10;99.90;;;;;;5096739;28;20468;-84
2022/03/31 12:42:24;;;;;;;3.40;1.00;;;10.00;99.90;;;;;;5097487;28;20884;-84
2022/03/31 12:44:51;;;;;;;1.83;1.73;;;10.00;99.90;;;;;;5096529;28;20409;-84
2022/03/31 12:47:23;;;;;;;0.73;0.73;;;10.00;99.90;;;;;;5096628;28;20420;-84
2022/03/31 12:49:50;;;;;;;5.23;1.33;;;10.00;99.90;;;;;;5096220;28;20472;-84
2022/03/31 12:52:18;;;;;;;2.37;1.40;;;10.00;99.90;;;;;;5096477;28;20503;-83
2022/03/31 12:54:50;;;;;;;1.77;0.80;;;9.90;99.90;;;;;;5096516;28;20433;-85
2022/03/31 12:57:20;;;;;;;4.30;1.63;;;9.90;99.90;;;;;;5096393;28;20439;-84
2022/03/31 13:00:00;;;;;;;2.97;1.17;;;9.90;99.90;;;;;;5096627;28;20455;-84
2022/03/31 13:02:27;;;;;;;1.50;1.00;;;9.90;99.90;;;;;;5096264;28;20420;-84
2022/03/31 13:04:54;;;;;;;0.40;0.40;;;10.00;99.90;;;;;;5095773;28;20494;-83
2022/03/31 13:07:27;;;;;;;2.30;0.90;;;10.20;99.90;;;;;;5095102;28;20442;-83
2022/03/31 13:09:55;;;;;;;1.53;1.27;;;10.30;99.90;;;;;;5096036;28;20463;-84
2022/03/31 13:12:21;;;;;;;2.27;0.70;;;10.60;99.90;;;;;;5096070;28;20475;-83
2022/03/31 13:14:48;;;;;;;6.50;1.30;;;10.70;99.90;;;;;;5096322;28;20451;-83
2022/03/31 13:17:18;;;;;;;1.03;0.70;;;10.80;99.90;;;;;;5096020;28;20432;-83
2022/03/31 13:19:45;;;;;;;1.37;0.60;;;10.90;99.90;;;;;;5095935;28;20533;-83
2022/03/31 13:22:14;;;;;;;0.77;0.77;;;11.00;99.90;;;;;;5095818;28;20452;-83